Terminal Aerodrome Forecast
Issued by NWS

Home | Current Version | Previous Version | Text Only | Print | Product List | Glossary On
Versions: 1 2 3 4 5 6 7 8 9 10 11 12 13 14
645
FTUS46 KPDT 301720
TAFPSC
TAF
KPSC 301720Z 3018/3118 20008KT P6SM SKC
     FM302000 22015G25KT P6SM SKC
     FM310600 22008G15KT P6SM SKC
     FM311200 22006KT P6SM SKC=

USA.gov is the U.S. government's official web portal to all federal, state and local government web resources and services.